Time;durP1;ratioP1;P1;durP2;ratioP2;P2;SDS_P1;SDS_P2;PMS_P1;PMS_P2;Temp;Humidity;BMP_temperature;BMP_pressure;BME280_temperature;BME280_humidity;BME280_pressure;Samples;Min_cycle;Max_cycle;Signal;HPM_P1;HPM_P2
2022/12/03 00:02:22;;;;;;;34.13;19.50;;;13.00;51.80;;;;;;4998920;28;20461;-80
2022/12/03 00:04:51;;;;;;;35.97;19.53;;;13.00;51.60;;;;;;4999117;28;20445;-80
2022/12/03 00:07:20;;;;;;;32.93;18.80;;;13.00;52.20;;;;;;5000344;28;20491;-80
2022/12/03 00:09:49;;;;;;;32.33;17.37;;;13.10;51.70;;;;;;5000473;28;20450;-80
2022/12/03 00:12:18;;;;;;;32.00;17.13;;;13.10;51.40;;;;;;4999831;28;20454;-80
2022/12/03 00:14:45;;;;;;;31.13;17.10;;;13.10;51.60;;;;;;5000485;28;20464;-80
2022/12/03 00:17:13;;;;;;;33.53;16.30;;;13.10;51.30;;;;;;4998189;28;20472;-79
2022/12/03 00:19:41;;;;;;;28.70;16.00;;;13.10;51.30;;;;;;5001464;28;20454;-81
2022/12/03 00:22:09;;;;;;;29.50;16.03;;;13.00;51.30;;;;;;4997510;28;20453;-80
2022/12/03 00:24:39;;;;;;;27.43;15.40;;;13.10;51.20;;;;;;4994496;28;20488;-80
2022/12/03 00:27:09;;;;;;;27.40;14.97;;;13.00;51.00;;;;;;4999877;28;20484;-81
2022/12/03 00:29:37;;;;;;;26.87;14.90;;;12.90;51.30;;;;;;4998681;28;20457;-80
2022/12/03 00:32:05;;;;;;;29.40;14.80;;;13.00;51.30;;;;;;4993483;28;20449;-79
2022/12/03 00:34:34;;;;;;;27.17;14.70;;;13.00;51.40;;;;;;4999538;28;20462;-81
2022/12/03 00:37:02;;;;;;;27.80;16.13;;;13.00;51.40;;;;;;4996837;28;20944;-80
2022/12/03 00:39:30;;;;;;;24.80;14.23;;;13.00;51.10;;;;;;4998561;28;20457;-80
2022/12/03 00:41:58;;;;;;;27.93;15.43;;;13.00;51.40;;;;;;4996010;28;20970;-80
2022/12/03 00:44:28;;;;;;;24.27;14.03;;;13.00;51.10;;;;;;4997583;28;20964;-80
2022/12/03 00:46:56;;;;;;;26.67;14.40;;;13.00;51.30;;;;;;4995620;28;20485;-80
2022/12/03 00:49:24;;;;;;;25.43;14.53;;;13.00;51.10;;;;;;4997532;28;20457;-80
2022/12/03 00:51:52;;;;;;;26.70;14.60;;;13.10;51.10;;;;;;4992156;28;20458;-80
2022/12/03 00:54:20;;;;;;;22.33;13.60;;;13.00;51.00;;;;;;4989623;28;20474;-80
2022/12/03 00:56:55;;;;;;;26.63;14.30;;;13.00;51.10;;;;;;4993479;28;20481;-81
2022/12/03 00:59:23;;;;;;;26.60;14.63;;;12.90;51.10;;;;;;4993797;28;20449;-80
2022/12/03 01:01:52;;;;;;;24.93;14.53;;;13.00;51.10;;;;;;4995578;28;20459;-80
2022/12/03 01:04:21;;;;;;;24.03;13.70;;;13.00;51.00;;;;;;4992473;28;20456;-80
2022/12/03 01:06:49;;;;;;;27.70;14.73;;;13.00;50.70;;;;;;4994746;28;20552;-79
2022/12/03 01:09:17;;;;;;;25.47;14.70;;;13.00;50.60;;;;;;4992153;28;20473;-80
2022/12/03 01:11:45;;;;;;;26.50;14.13;;;13.10;50.60;;;;;;4995200;28;20449;-79
2022/12/03 01:14:14;;;;;;;25.77;14.27;;;13.10;50.40;;;;;;4993596;28;20488;-79
2022/12/03 01:16:42;;;;;;;28.27;14.60;;;13.00;50.40;;;;;;4996729;28;20485;-80
2022/12/03 01:19:14;;;;;;;25.87;14.53;;;13.00;50.50;;;;;;4995099;28;20453;-80
2022/12/03 01:21:42;;;;;;;24.80;14.07;;;13.00;50.30;;;;;;4998657;28;20453;-80
2022/12/03 01:24:10;;;;;;;25.40;14.30;;;12.90;50.40;;;;;;4995811;28;20477;-80
2022/12/03 01:26:38;;;;;;;21.90;13.10;;;13.00;50.20;;;;;;4993148;28;20492;-80
2022/12/03 01:29:06;;;;;;;26.37;14.10;;;13.00;50.50;;;;;;4997215;28;20461;-80
2022/12/03 01:34:20;;;;;;;25.93;14.80;;;13.10;50.00;;;;;;4993244;28;20450;-80
2022/12/03 01:36:51;;;;;;;23.60;13.47;;;13.10;50.00;;;;;;4998912;28;20481;-80
2022/12/03 01:39:19;;;;;;;27.43;14.67;;;13.10;50.10;;;;;;4997237;28;20453;-81
2022/12/03 01:41:47;;;;;;;25.40;14.20;;;13.00;49.90;;;;;;5000773;28;20468;-81
2022/12/03 01:44:16;;;;;;;25.00;14.00;;;13.00;49.70;;;;;;5000291;28;20465;-81
2022/12/03 01:46:44;;;;;;;25.80;13.93;;;13.00;49.50;;;;;;4999278;28;20481;-80
2022/12/03 01:49:15;;;;;;;22.67;13.30;;;13.00;49.80;;;;;;5004227;28;20468;-80
2022/12/03 01:51:44;;;;;;;24.47;13.73;;;13.00;49.60;;;;;;5001291;28;20460;-80
2022/12/03 01:54:16;;;;;;;24.87;13.97;;;13.00;49.60;;;;;;5002772;28;20445;-80
2022/12/03 01:56:44;;;;;;;23.60;13.77;;;12.90;49.60;;;;;;5000947;28;20481;-81
2022/12/03 01:59:14;;;;;;;23.67;13.40;;;12.90;49.60;;;;;;5002395;28;20454;-80
2022/12/03 02:01:43;;;;;;;22.00;13.10;;;12.90;49.50;;;;;;5002881;28;20500;-80
2022/12/03 02:04:12;;;;;;;22.80;13.30;;;12.90;49.10;;;;;;5003517;28;20437;-80
2022/12/03 02:06:41;;;;;;;24.17;13.67;;;12.90;49.30;;;;;;5000333;28;20468;-80
2022/12/03 02:09:11;;;;;;;23.03;13.47;;;12.90;49.40;;;;;;4996540;28;20461;-80
2022/12/03 02:11:41;;;;;;;22.90;13.53;;;12.90;49.90;;;;;;4996248;28;20453;-80
2022/12/03 02:14:10;;;;;;;22.70;12.77;;;12.90;49.20;;;;;;4999537;28;20442;-81
2022/12/03 02:16:38;;;;;;;23.07;13.53;;;12.90;48.90;;;;;;4996995;28;20473;-81
2022/12/03 02:19:08;;;;;;;25.10;14.07;;;12.90;49.00;;;;;;4999050;28;20455;-80
2022/12/03 02:21:40;;;;;;;27.57;14.67;;;12.90;49.20;;;;;;4999104;28;20445;-80
2022/12/03 02:24:13;;;;;;;21.23;12.60;;;12.90;48.90;;;;;;4999696;28;20441;-80
2022/12/03 02:26:43;;;;;;;23.50;13.03;;;12.80;49.00;;;;;;5001006;28;20457;-81
2022/12/03 02:29:11;;;;;;;28.40;14.57;;;12.90;49.00;;;;;;5000096;28;20453;-81
2022/12/03 02:31:39;;;;;;;24.70;13.90;;;12.80;48.90;;;;;;5000433;28;20449;-81
2022/12/03 02:34:07;;;;;;;27.20;14.23;;;12.80;48.60;;;;;;4999294;28;20457;-81
2022/12/03 02:36:35;;;;;;;29.10;15.53;;;12.80;48.70;;;;;;4996326;28;20480;-79
2022/12/03 02:39:03;;;;;;;34.87;18.30;;;12.80;48.20;;;;;;4999212;28;20456;-79
2022/12/03 02:44:18;;;;;;;38.83;19.03;;;12.80;48.60;;;;;;4998862;28;20457;-80
2022/12/03 02:46:47;;;;;;;34.30;18.57;;;12.80;48.80;;;;;;5001333;28;20461;-79
2022/12/03 02:49:15;;;;;;;39.30;20.67;;;12.80;48.80;;;;;;4998155;28;20974;-79
2022/12/03 02:51:43;;;;;;;37.93;21.17;;;12.80;48.80;;;;;;4997233;28;20457;-79
2022/12/03 02:54:11;;;;;;;39.23;21.30;;;12.70;48.60;;;;;;4993378;28;20457;-79
2022/12/03 02:56:39;;;;;;;44.23;22.60;;;12.80;48.80;;;;;;4994521;28;20489;-79
2022/12/03 02:59:06;;;;;;;38.80;21.83;;;12.70;48.70;;;;;;4993514;28;20457;-80
2022/12/03 03:01:36;;;;;;;38.03;21.10;;;12.70;48.80;;;;;;4994391;28;20457;-80
2022/12/03 03:04:05;;;;;;;35.23;20.17;;;12.70;49.00;;;;;;4994933;28;20449;-81
2022/12/03 03:06:33;;;;;;;34.03;19.17;;;12.70;48.30;;;;;;4998093;28;20476;-81
2022/12/03 03:09:02;;;;;;;35.20;19.03;;;12.70;48.80;;;;;;4997441;28;20529;-81
2022/12/03 03:11:30;;;;;;;35.67;18.93;;;12.70;48.60;;;;;;4998345;28;20461;-80
2022/12/03 03:13:58;;;;;;;37.00;18.73;;;12.70;48.60;;;;;;4996864;28;20458;-81
2022/12/03 03:16:26;;;;;;;37.23;20.00;;;12.70;48.50;;;;;;4995125;28;20481;-80
2022/12/03 03:18:55;;;;;;;34.53;17.50;;;12.70;48.60;;;;;;4987890;28;20458;-81
2022/12/03 03:21:23;;;;;;;32.83;17.57;;;12.70;48.70;;;;;;4998839;28;20453;-81
2022/12/03 03:23:51;;;;;;;35.13;18.87;;;12.70;48.80;;;;;;4989734;28;20465;-80
2022/12/03 03:26:19;;;;;;;34.57;18.20;;;12.60;48.50;;;;;;4991656;28;20453;-79
2022/12/03 03:28:48;;;;;;;28.93;16.50;;;12.60;48.60;;;;;;4994115;28;20457;-80
2022/12/03 03:31:18;;;;;;;32.03;17.53;;;12.60;48.70;;;;;;4994507;28;20457;-80
2022/12/03 03:33:46;;;;;;;31.43;16.80;;;12.70;48.50;;;;;;4992611;28;20483;-80
2022/12/03 03:36:16;;;;;;;28.13;15.70;;;12.70;48.70;;;;;;4994935;28;20520;-79
2022/12/03 03:38:44;;;;;;;28.30;15.90;;;12.70;48.70;;;;;;4996562;28;20469;-80
2022/12/03 03:41:15;;;;;;;30.80;16.47;;;12.70;48.50;;;;;;4997384;28;20441;-80
2022/12/03 03:43:45;;;;;;;30.67;16.07;;;12.70;48.60;;;;;;4997968;28;20461;-79
2022/12/03 03:46:13;;;;;;;30.57;15.90;;;12.70;48.20;;;;;;4994077;28;20458;-80
2022/12/03 03:48:41;;;;;;;29.13;16.40;;;12.70;48.50;;;;;;4990725;28;20537;-80
2022/12/03 03:51:10;;;;;;;29.50;16.17;;;12.70;48.40;;;;;;4989743;28;20458;-80
2022/12/03 03:53:40;;;;;;;30.33;15.80;;;12.60;48.50;;;;;;4983964;28;20461;-80
2022/12/03 03:56:09;;;;;;;29.30;15.50;;;12.70;48.60;;;;;;4993908;28;20464;-80
2022/12/03 03:58:37;;;;;;;24.30;14.20;;;12.60;48.10;;;;;;4996603;28;20476;-80
2022/12/03 04:01:06;;;;;;;27.80;14.90;;;12.60;48.40;;;;;;4995800;28;20461;-80
2022/12/03 04:03:34;;;;;;;28.90;15.33;;;12.70;48.30;;;;;;4994260;28;20472;-80
2022/12/03 04:06:02;;;;;;;28.27;15.10;;;12.70;48.00;;;;;;4987759;28;20480;-80
2022/12/03 04:08:30;;;;;;;26.40;15.00;;;12.60;47.90;;;;;;4988762;28;20450;-80
2022/12/03 04:13:45;;;;;;;28.40;14.40;;;12.60;47.80;;;;;;4998101;28;20461;-80
2022/12/03 04:16:14;;;;;;;30.90;16.00;;;12.50;47.90;;;;;;5000802;28;20457;-81
2022/12/03 04:18:45;;;;;;;29.60;15.30;;;12.60;47.50;;;;;;5003535;28;20473;-80
2022/12/03 04:23:59;;;;;;;29.70;14.70;;;12.50;47.40;;;;;;5001767;28;20453;-80
2022/12/03 04:29:14;;;;;;;29.80;13.90;;;12.50;47.70;;;;;;4990421;28;20453;-80
2022/12/03 04:37:13;;;;;;;31.00;15.60;;;12.40;47.40;;;;;;4997824;28;20480;-80
2022/12/03 04:39:41;;;;;;;28.47;14.40;;;12.50;47.40;;;;;;4998503;28;20464;-80
2022/12/03 04:42:10;;;;;;;28.67;14.67;;;12.50;46.90;;;;;;4992515;28;20450;-81
2022/12/03 04:44:38;;;;;;;26.67;15.00;;;12.40;46.90;;;;;;5001559;28;20461;-78
2022/12/03 04:47:10;;;;;;;29.47;15.47;;;12.50;47.20;;;;;;4997431;28;20478;-79
2022/12/03 04:49:39;;;;;;;28.30;15.80;;;12.50;46.80;;;;;;4999166;28;20454;-80
2022/12/03 04:52:08;;;;;;;30.53;15.67;;;12.40;46.90;;;;;;4995016;28;20464;-79
2022/12/03 04:54:35;;;;;;;32.17;15.60;;;12.50;46.80;;;;;;5002233;28;20449;-80
2022/12/03 04:57:04;;;;;;;28.83;14.60;;;12.50;46.50;;;;;;5001481;28;20478;-80
2022/12/03 04:59:33;;;;;;;28.73;14.90;;;12.40;46.70;;;;;;5000195;28;20461;-80
2022/12/03 05:02:01;;;;;;;29.27;14.60;;;12.50;46.40;;;;;;4991679;28;20457;-80
2022/12/03 05:04:30;;;;;;;29.97;15.53;;;12.50;46.20;;;;;;4998987;28;20469;-80
2022/12/03 05:06:58;;;;;;;26.83;14.30;;;12.50;46.00;;;;;;4994411;28;20481;-79
2022/12/03 05:09:26;;;;;;;28.87;15.07;;;12.40;46.20;;;;;;5000067;28;20552;-79
2022/12/03 05:11:54;;;;;;;29.20;15.33;;;12.30;46.40;;;;;;4994133;28;20464;-79
2022/12/03 05:14:22;;;;;;;31.33;15.43;;;12.30;46.10;;;;;;4997269;28;20453;-80
2022/12/03 05:16:51;;;;;;;26.07;14.47;;;12.40;46.30;;;;;;4999030;28;20497;-79
2022/12/03 05:19:20;;;;;;;29.90;14.23;;;12.40;46.40;;;;;;4986300;28;20885;-80
2022/12/03 05:21:47;;;;;;;31.87;16.00;;;12.30;46.40;;;;;;4996457;28;20453;-79
2022/12/03 05:24:14;;;;;;;29.43;15.37;;;12.40;46.30;;;;;;4993934;28;20469;-79
2022/12/03 05:26:42;;;;;;;35.40;16.33;;;12.40;46.70;;;;;;4998733;28;20481;-79
2022/12/03 05:29:10;;;;;;;34.63;15.90;;;12.30;46.40;;;;;;4996563;28;20457;-79
2022/12/03 05:31:38;;;;;;;31.50;15.63;;;12.30;46.30;;;;;;4992953;28;20462;-80
2022/12/03 05:34:07;;;;;;;30.20;15.10;;;12.30;46.00;;;;;;4991631;28;20522;-79
2022/12/03 05:36:35;;;;;;;42.10;15.90;;;12.30;46.00;;;;;;4996172;28;20477;-80
2022/12/03 05:39:03;;;;;;;31.40;15.87;;;12.30;46.40;;;;;;4992573;28;20520;-82
2022/12/03 05:44:31;;;;;;;32.50;15.97;;;12.20;46.10;;;;;;4936240;29;20901;-79
2022/12/03 05:46:59;;;;;;;34.70;16.10;;;12.20;45.70;;;;;;4939173;29;20471;-79
2022/12/03 05:49:29;;;;;;;30.53;15.63;;;12.20;45.90;;;;;;4962866;28;20457;-79
2022/12/03 05:51:57;;;;;;;29.80;15.30;;;12.20;45.90;;;;;;4994964;28;20511;-79
2022/12/03 05:54:25;;;;;;;30.80;15.13;;;12.20;45.60;;;;;;4985492;28;20517;-79
2022/12/03 05:56:54;;;;;;;35.17;16.83;;;12.20;45.90;;;;;;4992059;28;20470;-80
2022/12/03 05:59:21;;;;;;;34.07;16.90;;;12.20;45.80;;;;;;4985336;28;20477;-80
2022/12/03 06:01:50;;;;;;;35.43;16.03;;;12.20;45.90;;;;;;4992215;28;20464;-79
2022/12/03 06:04:18;;;;;;;33.87;16.63;;;12.10;45.90;;;;;;4986242;28;20450;-80
2022/12/03 06:06:47;;;;;;;33.87;16.27;;;12.10;45.70;;;;;;4997692;28;20485;-79
2022/12/03 06:09:15;;;;;;;33.77;15.93;;;12.10;45.70;;;;;;4989993;28;20453;-80
2022/12/03 06:11:43;;;;;;;30.77;15.87;;;12.10;45.80;;;;;;4989541;28;20465;-80
2022/12/03 06:14:12;;;;;;;32.73;16.40;;;12.10;45.90;;;;;;4995476;28;20461;-80
2022/12/03 06:16:39;;;;;;;34.07;16.37;;;12.10;45.40;;;;;;4996966;28;20996;-80
2022/12/03 06:19:08;;;;;;;32.70;16.60;;;12.10;45.50;;;;;;4997014;28;20484;-79
2022/12/03 06:21:36;;;;;;;34.80;17.63;;;12.10;45.10;;;;;;4996642;28;20476;-79
2022/12/03 06:24:06;;;;;;;37.77;17.27;;;12.00;45.50;;;;;;4995435;28;20483;-79
2022/12/03 06:26:34;;;;;;;34.43;17.10;;;12.10;45.50;;;;;;4995420;28;20496;-79
2022/12/03 06:29:02;;;;;;;40.93;18.70;;;12.00;45.60;;;;;;4996074;28;20453;-78
2022/12/03 06:31:30;;;;;;;35.13;17.43;;;12.00;45.40;;;;;;4995941;28;20483;-79
2022/12/03 06:33:59;;;;;;;38.30;18.57;;;11.90;45.20;;;;;;4994870;28;20465;-80
2022/12/03 06:36:27;;;;;;;38.47;18.37;;;11.90;44.90;;;;;;4994236;28;20473;-79
2022/12/03 06:38:55;;;;;;;38.20;18.47;;;11.90;45.10;;;;;;4995973;28;21010;-79
2022/12/03 06:41:24;;;;;;;38.43;19.00;;;11.90;45.10;;;;;;4994800;28;20482;-80
2022/12/03 06:43:52;;;;;;;43.90;21.60;;;11.90;45.70;;;;;;4993010;28;20457;-80
2022/12/03 06:46:20;;;;;;;43.07;21.37;;;12.10;45.20;;;;;;4995593;28;20457;-79
2022/12/03 06:48:48;;;;;;;41.07;20.37;;;12.00;45.40;;;;;;5002633;28;20491;-78
2022/12/03 06:51:16;;;;;;;42.30;20.33;;;12.00;45.30;;;;;;5001527;28;20453;-79
2022/12/03 06:53:44;;;;;;;40.87;19.20;;;12.00;45.20;;;;;;4996994;28;20458;-79
2022/12/03 06:56:12;;;;;;;38.60;18.90;;;11.90;45.40;;;;;;4995114;28;20464;-79
2022/12/03 06:58:41;;;;;;;41.43;20.00;;;11.80;45.40;;;;;;4998362;28;20469;-79
2022/12/03 07:01:10;;;;;;;42.47;19.50;;;11.80;45.60;;;;;;4999996;28;20449;-79
2022/12/03 07:03:37;;;;;;;38.23;19.40;;;11.80;45.20;;;;;;4999629;28;20437;-78
2022/12/03 07:06:06;;;;;;;41.73;19.07;;;11.80;45.30;;;;;;4998513;28;20488;-79
2022/12/03 07:08:34;;;;;;;46.70;20.50;;;11.90;45.20;;;;;;4997367;28;20476;-80
2022/12/03 07:11:02;;;;;;;44.10;19.53;;;11.80;45.30;;;;;;4997656;28;20465;-79
2022/12/03 07:13:30;;;;;;;42.60;20.40;;;11.70;45.60;;;;;;4997947;28;20461;-80
2022/12/03 07:15:59;;;;;;;44.87;20.90;;;11.70;45.70;;;;;;4999062;28;20453;-79
2022/12/03 07:18:27;;;;;;;39.90;20.20;;;11.70;45.40;;;;;;4997377;28;20503;-79
2022/12/03 07:20:55;;;;;;;38.70;19.33;;;11.60;45.60;;;;;;4991935;28;20461;-80
2022/12/03 07:23:24;;;;;;;42.60;20.37;;;11.60;46.10;;;;;;4996410;28;20461;-79
2022/12/03 07:25:51;;;;;;;41.77;19.60;;;11.60;45.80;;;;;;4997250;28;20468;-80
2022/12/03 07:28:20;;;;;;;43.87;21.03;;;11.60;45.90;;;;;;4995011;28;20480;-80
2022/12/03 07:30:48;;;;;;;42.70;20.40;;;11.70;45.70;;;;;;4996141;28;20464;-79
2022/12/03 07:33:17;;;;;;;47.53;21.80;;;11.70;45.90;;;;;;4996468;28;20475;-79
2022/12/03 07:35:45;;;;;;;44.30;20.30;;;11.70;46.00;;;;;;4996637;28;20457;-80
2022/12/03 07:38:13;;;;;;;40.53;20.47;;;11.70;45.70;;;;;;4998573;28;20572;-79
2022/12/03 07:40:41;;;;;;;43.33;20.63;;;11.70;45.80;;;;;;4994140;28;20472;-79
2022/12/03 07:43:09;;;;;;;42.90;21.53;;;11.70;45.40;;;;;;4995493;28;20454;-80
2022/12/03 07:45:37;;;;;;;46.10;21.87;;;11.70;45.70;;;;;;4993594;28;20516;-80
2022/12/03 07:48:06;;;;;;;46.07;20.33;;;11.70;45.60;;;;;;4999064;28;20487;-79
2022/12/03 07:50:35;;;;;;;43.77;21.80;;;11.70;45.40;;;;;;4997353;28;20454;-79
2022/12/03 07:53:03;;;;;;;45.53;21.07;;;11.80;45.40;;;;;;4998483;28;20453;-80
2022/12/03 07:55:31;;;;;;;45.17;21.20;;;11.80;45.60;;;;;;5000784;28;20460;-80
2022/12/03 07:57:59;;;;;;;45.30;22.90;;;11.80;45.10;;;;;;5000149;28;20472;-79
2022/12/03 08:00:27;;;;;;;59.23;26.20;;;11.80;45.60;;;;;;5000712;28;20469;-79
2022/12/03 08:02:55;;;;;;;45.33;22.17;;;11.80;45.40;;;;;;4999874;28;20496;-79
2022/12/03 08:05:25;;;;;;;47.50;22.50;;;11.80;45.40;;;;;;5000824;28;20464;-80
2022/12/03 08:07:54;;;;;;;48.30;23.80;;;11.70;45.40;;;;;;4995047;28;20477;-79
2022/12/03 08:10:23;;;;;;;46.90;23.40;;;11.60;45.40;;;;;;5001669;28;20453;-78
2022/12/03 08:12:52;;;;;;;44.97;21.10;;;11.60;45.70;;;;;;5003015;28;20453;-80
2022/12/03 08:15:22;;;;;;;46.33;21.00;;;11.70;45.50;;;;;;5002178;28;20468;-80
2022/12/03 08:17:53;;;;;;;48.63;21.77;;;11.80;45.30;;;;;;5001297;28;20489;-80
2022/12/03 08:20:22;;;;;;;47.53;23.07;;;11.80;45.00;;;;;;4994577;28;20476;-79
2022/12/03 08:22:51;;;;;;;41.67;21.77;;;11.80;44.90;;;;;;5000398;28;20457;-81
2022/12/03 08:25:22;;;;;;;47.77;23.30;;;11.80;44.80;;;;;;5002423;28;20449;-80
2022/12/03 08:27:50;;;;;;;54.83;26.73;;;11.80;44.90;;;;;;5001590;28;20488;-80
2022/12/03 08:30:19;;;;;;;56.37;26.10;;;11.80;45.10;;;;;;4998453;28;20458;-80
2022/12/03 08:32:47;;;;;;;51.77;24.43;;;11.90;44.70;;;;;;5000068;28;20454;-79
2022/12/03 08:35:23;;;;;;;47.03;23.13;;;11.80;44.80;;;;;;4996603;28;20461;-79
2022/12/03 08:37:57;;;;;;;49.30;23.13;;;11.80;45.10;;;;;;4996872;28;20496;-80
2022/12/03 08:40:32;;;;;;;45.00;22.63;;;11.90;44.90;;;;;;4996232;28;20477;-80
2022/12/03 08:42:59;;;;;;;45.47;21.90;;;11.90;45.00;;;;;;4994127;28;20515;-80
2022/12/03 08:45:40;;;;;;;46.07;21.90;;;12.00;45.00;;;;;;5001773;28;20453;-80
2022/12/03 08:48:25;;;;;;;46.43;22.10;;;12.10;44.90;;;;;;4997280;28;20540;-80
2022/12/03 08:50:53;;;;;;;45.70;22.30;;;12.20;44.80;;;;;;5002898;28;20458;-80
2022/12/03 08:53:35;;;;;;;47.00;21.83;;;12.20;44.50;;;;;;5002913;28;20453;-80
2022/12/03 08:56:16;;;;;;;48.70;23.07;;;12.30;44.60;;;;;;4997297;28;20466;-80
2022/12/03 08:58:44;;;;;;;39.50;20.60;;;12.30;44.70;;;;;;5000735;28;20457;-79
2022/12/03 09:01:24;;;;;;;46.93;22.53;;;12.40;44.70;;;;;;5001233;28;20469;-80
2022/12/03 09:03:53;;;;;;;46.93;23.03;;;12.50;44.50;;;;;;5001577;28;20461;-80
2022/12/03 09:06:21;;;;;;;44.00;22.20;;;12.50;44.40;;;;;;4999375;28;20453;-79
2022/12/03 09:08:49;;;;;;;39.70;20.60;;;12.60;44.10;;;;;;4998134;28;20469;-79
2022/12/03 09:11:18;;;;;;;40.20;20.93;;;12.60;44.20;;;;;;4999404;28;20457;-79
2022/12/03 09:13:46;;;;;;;46.97;22.80;;;12.70;44.00;;;;;;4998906;28;20470;-80
2022/12/03 09:16:14;;;;;;;42.03;21.23;;;12.70;43.60;;;;;;5001415;28;20461;-80
2022/12/03 09:18:43;;;;;;;45.43;22.00;;;12.70;43.50;;;;;;4997667;28;20445;-80
2022/12/03 09:21:10;;;;;;;45.80;22.03;;;12.70;43.60;;;;;;4999693;28;20477;-79
2022/12/03 09:23:39;;;;;;;47.03;23.47;;;12.70;43.30;;;;;;4997618;28;20462;-79
2022/12/03 09:26:07;;;;;;;45.00;22.37;;;12.80;43.50;;;;;;4999391;28;20457;-79
2022/12/03 09:28:36;;;;;;;48.77;24.20;;;12.80;43.20;;;;;;4998042;28;20462;-80
2022/12/03 09:31:05;;;;;;;50.40;24.83;;;12.90;43.30;;;;;;4997267;28;20461;-79
2022/12/03 09:33:33;;;;;;;46.03;24.00;;;13.00;43.60;;;;;;4998106;28;20468;-79
2022/12/03 09:36:01;;;;;;;46.60;23.23;;;13.10;43.20;;;;;;4998840;28;20457;-80
2022/12/03 09:38:29;;;;;;;44.47;22.43;;;13.10;43.50;;;;;;4997476;28;20457;-79
2022/12/03 09:40:57;;;;;;;49.10;24.13;;;13.10;43.40;;;;;;4996790;28;20469;-79
2022/12/03 09:43:27;;;;;;;43.80;21.97;;;13.10;42.80;;;;;;4998353;28;20457;-79
2022/12/03 09:46:16;;;;;;;42.57;22.20;;;13.10;43.60;;;;;;4992930;28;20453;-79
2022/12/03 09:48:44;;;;;;;45.27;21.13;;;13.20;43.20;;;;;;4994752;28;20464;-79
2022/12/03 09:51:12;;;;;;;41.40;22.73;;;13.20;43.20;;;;;;4997616;28;20457;-80
2022/12/03 09:53:40;;;;;;;42.63;21.00;;;13.20;43.10;;;;;;4997018;28;20462;-79
2022/12/03 09:56:12;;;;;;;48.40;23.77;;;13.10;43.00;;;;;;4998114;28;20461;-80
2022/12/03 09:58:40;;;;;;;47.27;22.70;;;13.10;43.20;;;;;;4997620;28;20461;-80
2022/12/03 10:01:10;;;;;;;43.90;23.10;;;13.20;43.20;;;;;;4997761;28;20480;-79
2022/12/03 10:03:42;;;;;;;43.93;22.17;;;13.20;42.90;;;;;;4997846;28;20461;-79
2022/12/03 10:06:10;;;;;;;40.37;20.40;;;13.20;42.80;;;;;;4992142;28;20457;-79
2022/12/03 10:08:38;;;;;;;42.50;21.00;;;13.20;42.80;;;;;;4996087;28;20465;-79
2022/12/03 10:11:06;;;;;;;41.03;22.37;;;13.00;42.90;;;;;;4992244;28;20453;-79
2022/12/03 10:13:36;;;;;;;41.97;21.80;;;13.00;42.90;;;;;;4998268;28;20453;-79
2022/12/03 10:16:04;;;;;;;44.17;21.27;;;13.00;42.80;;;;;;4998085;28;20454;-79
2022/12/03 10:18:33;;;;;;;52.90;26.20;;;13.00;42.80;;;;;;4997925;28;20454;-79
2022/12/03 10:21:16;;;;;;;53.53;25.70;;;13.00;42.80;;;;;;4998860;28;20469;-79
2022/12/03 10:23:44;;;;;;;47.50;24.20;;;13.10;43.00;;;;;;4998598;28;20491;-78
2022/12/03 10:26:17;;;;;;;47.07;23.80;;;13.00;43.20;;;;;;5001942;28;20457;-79
2022/12/03 10:28:46;;;;;;;45.67;22.93;;;13.10;43.00;;;;;;4997672;28;20465;-79
2022/12/03 10:31:15;;;;;;;44.10;22.60;;;13.10;42.80;;;;;;4997422;28;20465;-80
2022/12/03 10:33:44;;;;;;;53.13;26.73;;;13.00;43.00;;;;;;4996705;28;20461;-79
2022/12/03 10:36:22;;;;;;;50.90;26.47;;;13.10;42.80;;;;;;4998351;28;20453;-80
2022/12/03 10:39:10;;;;;;;45.70;24.20;;;13.00;42.90;;;;;;4992787;28;20449;-80
2022/12/03 10:41:38;;;;;;;47.87;23.80;;;13.00;42.70;;;;;;4999785;28;20485;-81
2022/12/03 10:44:12;;;;;;;48.00;22.33;;;12.90;43.00;;;;;;5001629;28;20453;-81
2022/12/03 10:46:40;;;;;;;44.90;21.60;;;12.90;42.40;;;;;;5000781;28;20476;-80
2022/12/03 10:49:09;;;;;;;45.00;21.93;;;12.90;42.20;;;;;;5001488;28;20459;-80
2022/12/03 10:51:39;;;;;;;45.17;21.80;;;12.80;42.70;;;;;;4998375;28;20453;-80
2022/12/03 10:54:17;;;;;;;39.60;19.43;;;12.90;42.70;;;;;;4999382;28;20457;-79
2022/12/03 10:56:46;;;;;;;42.10;20.53;;;13.00;42.60;;;;;;5002911;28;20465;-79
2022/12/03 10:59:18;;;;;;;41.90;21.10;;;13.10;42.80;;;;;;4997766;28;20457;-80
2022/12/03 11:01:46;;;;;;;46.77;22.30;;;13.40;42.70;;;;;;4997573;28;20469;-81
2022/12/03 11:04:19;;;;;;;40.13;21.57;;;13.60;42.70;;;;;;4999842;28;20461;-80
2022/12/03 11:06:49;;;;;;;43.10;22.00;;;13.80;42.20;;;;;;4995072;28;20488;-79
2022/12/03 11:09:20;;;;;;;48.87;24.37;;;13.90;42.40;;;;;;4999224;28;20457;-80
2022/12/03 11:11:48;;;;;;;51.73;25.07;;;14.00;42.00;;;;;;4997887;28;20453;-81
2022/12/03 11:15:04;;;;;;;44.30;23.03;;;14.10;41.80;;;;;;4999348;28;20462;-81
2022/12/03 11:17:40;;;;;;;45.10;23.47;;;14.10;41.60;;;;;;4996071;28;20487;-81
2022/12/03 11:20:09;;;;;;;48.40;23.30;;;14.20;41.60;;;;;;4998568;28;20483;-80
2022/12/03 11:22:41;;;;;;;43.13;21.97;;;14.20;41.80;;;;;;5002472;28;20484;-80
2022/12/03 11:25:56;;;;;;;40.90;20.80;;;14.30;41.50;;;;;;5006852;28;20468;-82
2022/12/03 11:28:54;;;;;;;42.83;21.63;;;14.20;41.70;;;;;;5002309;28;20485;-80
2022/12/03 11:31:36;;;;;;;44.63;23.10;;;14.40;41.70;;;;;;4961810;29;20454;-80
2022/12/03 11:34:47;;;;;;;40.00;21.10;;;14.50;41.20;;;;;;4993192;28;20500;-82
2022/12/03 11:37:26;;;;;;;41.50;22.83;;;14.60;41.20;;;;;;5000331;28;20475;-80
2022/12/03 11:40:31;;;;;;;40.17;21.07;;;14.60;41.40;;;;;;5002468;28;20453;-80
2022/12/03 11:43:09;;;;;;;37.07;20.57;;;14.60;41.00;;;;;;5005693;28;20464;-80
2022/12/03 11:45:38;;;;;;;37.57;19.93;;;14.60;40.60;;;;;;5003617;28;20457;-80
2022/12/03 11:48:11;;;;;;;38.13;19.83;;;14.50;40.50;;;;;;5003567;28;20491;-79
2022/12/03 11:50:41;;;;;;;37.80;20.30;;;14.50;40.60;;;;;;5002392;28;20452;-80
2022/12/03 11:53:13;;;;;;;35.07;19.30;;;14.40;40.80;;;;;;5003686;28;20453;-81
2022/12/03 11:55:45;;;;;;;37.27;19.70;;;14.40;40.80;;;;;;5005764;28;20457;-81
2022/12/03 11:58:16;;;;;;;35.90;20.07;;;14.30;40.70;;;;;;5003729;28;20483;-80
2022/12/03 12:00:49;;;;;;;34.27;18.87;;;14.20;40.80;;;;;;5005711;28;20457;-81
2022/12/03 12:03:25;;;;;;;38.70;19.87;;;14.10;41.00;;;;;;5003434;28;20491;-81
2022/12/03 12:06:01;;;;;;;35.37;18.90;;;14.10;40.90;;;;;;4995820;28;20445;-81
2022/12/03 12:08:29;;;;;;;40.13;20.40;;;14.00;41.00;;;;;;5003040;28;20439;-80
2022/12/03 12:10:57;;;;;;;37.37;19.90;;;14.10;41.20;;;;;;5006705;28;20453;-80
2022/12/03 12:13:53;;;;;;;36.67;20.17;;;14.10;41.00;;;;;;5005350;28;20449;-80
2022/12/03 12:16:44;;;;;;;40.83;20.53;;;14.00;40.70;;;;;;5005884;28;20449;-81
2022/12/03 12:19:29;;;;;;;35.10;19.40;;;14.00;40.80;;;;;;5005800;28;20457;-80
2022/12/03 12:22:12;;;;;;;35.90;18.33;;;13.90;40.70;;;;;;5005990;28;20469;-81
2022/12/03 12:24:45;;;;;;;35.10;19.17;;;13.90;41.00;;;;;;5006840;28;20449;-80
2022/12/03 12:27:15;;;;;;;37.30;19.13;;;13.80;41.10;;;;;;5005685;28;20460;-80
2022/12/03 12:29:44;;;;;;;34.07;18.57;;;13.70;41.00;;;;;;5005913;28;20477;-81
2022/12/03 12:32:15;;;;;;;41.43;21.87;;;13.80;41.50;;;;;;5006154;28;20509;-81
2022/12/03 12:34:44;;;;;;;37.17;20.40;;;13.80;40.90;;;;;;5004418;28;20445;-81
2022/12/03 12:37:15;;;;;;;41.87;20.53;;;13.70;41.20;;;;;;5005435;28;20480;-80
2022/12/03 12:39:44;;;;;;;49.67;24.83;;;13.70;41.40;;;;;;5002636;28;20472;-80
2022/12/03 12:42:27;;;;;;;47.53;23.80;;;13.70;41.60;;;;;;5005981;28;20477;-80
2022/12/03 12:44:57;;;;;;;46.87;22.57;;;13.70;41.90;;;;;;5004667;28;20449;-81
2022/12/03 12:47:28;;;;;;;35.67;19.70;;;13.60;41.90;;;;;;5004876;28;20456;-80
2022/12/03 12:49:56;;;;;;;43.77;20.20;;;13.50;42.00;;;;;;5005459;28;20486;-82
2022/12/03 12:52:25;;;;;;;41.53;19.57;;;13.50;42.00;;;;;;5002628;28;20446;-81
2022/12/03 12:54:54;;;;;;;43.03;20.60;;;13.40;42.50;;;;;;5001631;28;20481;-81
2022/12/03 12:57:25;;;;;;;39.73;19.67;;;13.40;42.20;;;;;;5002419;28;20500;-81
2022/12/03 12:59:53;;;;;;;36.47;19.30;;;13.50;42.10;;;;;;5000348;28;20477;-80
2022/12/03 13:02:39;;;;;;;35.40;18.00;;;13.30;43.50;;;;;;5002719;28;20465;-79
2022/12/03 13:05:11;;;;;;;38.00;18.83;;;13.40;43.40;;;;;;4983076;28;20450;-79
2022/12/03 13:07:39;;;;;;;31.40;17.53;;;13.40;43.60;;;;;;4997094;28;20472;-79